createdAt,value
2018-09-21T00:00:12.763Z,18.50
2018-09-21T00:02:41.776Z,18.52
2018-09-21T00:05:10.803Z,18.54
2018-09-21T00:07:39.815Z,18.66
2018-09-21T00:10:08.849Z,18.65
2018-09-21T00:12:37.855Z,18.64
2018-09-21T00:15:06.896Z,18.70
2018-09-21T00:17:35.873Z,18.64
2018-09-21T00:20:04.978Z,18.69
2018-09-21T00:22:33.983Z,18.65
2018-09-21T00:25:03.297Z,18.58
2018-09-21T00:27:32.283Z,18.47
2018-09-21T00:30:01.261Z,18.37
2018-09-21T00:32:30.238Z,18.19
2018-09-21T00:34:59.235Z,18.07
2018-09-21T00:37:28.270Z,17.97
2018-09-21T00:40:03.602Z,18.06
2018-09-21T00:42:32.578Z,17.93
2018-09-21T00:45:01.573Z,17.82
2018-09-21T00:47:30.530Z,17.76
2018-09-21T00:49:59.510Z,17.75
2018-09-21T00:52:28.497Z,17.71
2018-09-21T00:54:57.478Z,17.84
2018-09-21T00:57:26.454Z,18.01
2018-09-21T00:59:55.434Z,18.18
2018-09-21T01:02:24.402Z,18.16
2018-09-21T01:04:53.381Z,18.25
2018-09-21T01:07:22.370Z,18.20
2018-09-21T01:09:51.355Z,18.65
2018-09-21T01:12:20.341Z,19.30
2018-09-21T01:14:49.309Z,19.71
2018-09-21T01:17:18.301Z,20.20
2018-09-21T01:19:47.285Z,20.29
2018-09-21T01:22:16.275Z,20.05
2018-09-21T01:24:45.310Z,20.14
2018-09-21T01:27:15.946Z,20.48
2018-09-21T01:29:45.429Z,20.57
2018-09-21T01:32:14.409Z,21.10
2018-09-21T01:34:43.386Z,21.20
2018-09-21T01:37:12.379Z,21.56
2018-09-21T01:39:41.354Z,21.46
2018-09-21T01:42:10.350Z,21.27
2018-09-21T01:44:39.353Z,21.50
2018-09-21T01:47:08.349Z,21.93
2018-09-21T01:49:37.326Z,22.16
2018-09-21T01:52:06.297Z,22.23
2018-09-21T01:54:35.263Z,22.17
2018-09-21T01:57:04.239Z,22.34
2018-09-21T01:59:33.201Z,22.27
2018-09-21T02:02:02.182Z,22.18
2018-09-21T02:04:36.650Z,22.38
2018-09-21T02:07:06.265Z,22.41
2018-09-21T02:09:35.290Z,22.26
2018-09-21T02:12:04.490Z,22.46
2018-09-21T02:14:33.505Z,22.36
2018-09-21T02:17:02.726Z,22.30
2018-09-21T02:19:31.733Z,22.30
2018-09-21T02:22:00.714Z,22.37
2018-09-21T02:24:29.726Z,22.26
2018-09-21T02:26:58.713Z,22.23
2018-09-21T02:29:27.686Z,22.08
2018-09-21T02:31:56.668Z,22.02
2018-09-21T02:34:25.645Z,21.73
2018-09-21T02:36:54.650Z,21.90
2018-09-21T02:39:23.695Z,21.88
2018-09-21T02:41:52.685Z,21.87
2018-09-21T02:44:21.690Z,21.87
2018-09-21T02:46:50.674Z,21.85
2018-09-21T02:49:19.650Z,21.77
2018-09-21T02:51:48.821Z,21.65
2018-09-21T02:54:17.822Z,21.48
2018-09-21T02:56:46.828Z,21.34
2018-09-21T02:59:15.817Z,21.30
2018-09-21T03:01:44.802Z,21.50
2018-09-21T03:04:13.829Z,21.54
2018-09-21T03:06:42.805Z,21.78
2018-09-21T03:09:12.069Z,21.87
2018-09-21T03:11:41.042Z,21.93
2018-09-21T03:14:10.001Z,21.98
2018-09-21T03:16:38.989Z,21.68
2018-09-21T03:19:08.034Z,21.79
2018-09-21T03:21:37.015Z,21.83
2018-09-21T03:24:06.001Z,21.80
2018-09-21T03:26:34.962Z,21.63
2018-09-21T03:29:03.966Z,21.60
2018-09-21T03:31:32.958Z,21.72
2018-09-21T03:34:02.057Z,21.67
2018-09-21T03:36:31.034Z,21.64
2018-09-21T03:39:00.037Z,21.61
2018-09-21T03:41:29.010Z,21.64
2018-09-21T03:43:58.048Z,21.50
2018-09-21T03:46:27.010Z,21.43
2018-09-21T03:48:56.045Z,21.45
2018-09-21T03:51:25.043Z,21.47
2018-09-21T03:53:54.027Z,21.52
2018-09-21T03:56:22.997Z,21.56
2018-09-21T03:58:51.991Z,21.31
2018-09-21T04:01:20.971Z,21.35
2018-09-21T04:03:49.939Z,21.27
2018-09-21T04:06:18.925Z,21.17
2018-09-21T04:08:47.890Z,21.09
2018-09-21T04:11:16.870Z,21.14
2018-09-21T04:13:45.855Z,21.29
2018-09-21T04:16:14.834Z,21.38
2018-09-21T04:18:43.801Z,21.31
2018-09-21T04:21:12.797Z,21.34
2018-09-21T04:23:41.788Z,21.21
2018-09-21T04:26:10.756Z,20.95
2018-09-21T04:28:39.727Z,20.97
2018-09-21T04:31:08.698Z,20.90
2018-09-21T04:33:37.670Z,20.90
2018-09-21T04:36:06.715Z,20.94
2018-09-21T04:38:35.631Z,20.95
2018-09-21T04:41:04.614Z,20.60
2018-09-21T04:43:33.590Z,20.64
2018-09-21T04:46:02.678Z,20.87
2018-09-21T04:48:31.718Z,20.85
2018-09-21T04:51:00.789Z,20.85
2018-09-21T04:53:29.749Z,20.77
2018-09-21T04:55:58.845Z,21.02
2018-09-21T04:58:27.781Z,21.07
2018-09-21T05:00:56.858Z,21.13
2018-09-21T05:03:25.866Z,20.99
2018-09-21T05:05:54.841Z,20.82
2018-09-21T05:08:23.985Z,20.57
2018-09-21T05:10:53.002Z,20.44
2018-09-21T05:13:21.994Z,20.68
2018-09-21T05:15:52.136Z,20.80
2018-09-21T05:18:21.138Z,20.89
2018-09-21T05:20:50.139Z,20.87
2018-09-21T05:23:19.125Z,20.76
2018-09-21T05:25:48.115Z,21.05
2018-09-21T05:28:17.082Z,21.24
2018-09-21T05:30:46.070Z,21.27
2018-09-21T05:33:15.701Z,21.25
2018-09-21T05:35:44.702Z,21.40
2018-09-21T05:38:13.732Z,21.59
2018-09-21T05:40:42.731Z,21.57
2018-09-21T05:43:11.703Z,21.55
2018-09-21T05:45:40.684Z,21.77
2018-09-21T05:48:09.670Z,21.96
2018-09-21T05:50:38.681Z,22.04
2018-09-21T05:53:08.321Z,22.20
2018-09-21T05:55:37.334Z,22.19
2018-09-21T05:58:06.309Z,22.13
2018-09-21T06:00:35.279Z,22.37
2018-09-21T06:03:04.258Z,22.49
2018-09-21T06:05:33.255Z,22.61
2018-09-21T06:08:02.370Z,22.70
2018-09-21T06:10:31.305Z,22.74
2018-09-21T06:13:00.287Z,22.65
2018-09-21T06:15:29.523Z,22.71
2018-09-21T06:17:58.587Z,22.65
2018-09-21T06:20:27.602Z,22.69
2018-09-21T06:22:56.593Z,22.69
2018-09-21T06:25:25.646Z,22.64
2018-09-21T06:27:54.713Z,22.60
2018-09-21T06:30:23.691Z,22.62
2018-09-21T06:32:52.679Z,22.69
2018-09-21T06:35:21.641Z,22.71
2018-09-21T06:37:50.722Z,22.79
2018-09-21T06:40:19.694Z,22.73
2018-09-21T06:42:48.704Z,22.76
2018-09-21T06:45:17.819Z,22.86
2018-09-21T06:47:46.806Z,22.82
2018-09-21T06:50:15.855Z,22.60
2018-09-21T06:52:44.850Z,22.62
2018-09-21T06:55:13.854Z,22.49
2018-09-21T06:57:42.838Z,22.49
2018-09-21T07:00:11.813Z,22.43
2018-09-21T07:02:40.809Z,22.31
2018-09-21T07:05:16.626Z,22.34
2018-09-21T07:07:46.043Z,22.35
2018-09-21T07:10:15.333Z,22.28
2018-09-21T07:12:44.322Z,22.36
2018-09-21T07:15:13.402Z,22.48
2018-09-21T07:17:42.629Z,22.46
2018-09-21T07:20:11.593Z,22.56
2018-09-21T07:22:40.588Z,22.45
2018-09-21T07:25:09.558Z,22.46
2018-09-21T07:27:38.550Z,22.35
2018-09-21T07:30:07.542Z,22.34
2018-09-21T07:32:36.569Z,22.20
2018-09-21T07:35:05.670Z,22.16
2018-09-21T07:37:34.811Z,22.20
2018-09-21T07:40:04.366Z,22.20
2018-09-21T07:42:33.353Z,22.29
2018-09-21T07:45:02.321Z,22.34
2018-09-21T07:47:31.310Z,22.34
2018-09-21T07:50:00.298Z,22.40
2018-09-21T07:52:29.269Z,22.57
2018-09-21T07:54:58.263Z,22.68
2018-09-21T07:57:27.411Z,22.71
2018-09-21T07:59:56.404Z,22.76
2018-09-21T08:02:25.375Z,22.71
2018-09-21T08:04:54.929Z,22.73
2018-09-21T08:07:24.071Z,22.87
2018-09-21T08:09:53.062Z,22.94
2018-09-21T08:12:22.067Z,22.99
2018-09-21T08:14:51.054Z,23.22
2018-09-21T08:17:20.036Z,23.44
2018-09-21T08:19:49.022Z,23.43
2018-09-21T08:22:18.045Z,23.23
2018-09-21T08:24:47.069Z,22.94
2018-09-21T08:27:17.734Z,23.16
2018-09-21T08:29:46.842Z,23.11
2018-09-21T08:32:15.896Z,23.34
2018-09-21T08:34:45.037Z,23.34
2018-09-21T08:37:14.088Z,23.16
2018-09-21T08:39:43.058Z,23.17
2018-09-21T08:42:12.098Z,23.31
2018-09-21T08:44:41.090Z,23.39
2018-09-21T08:47:10.053Z,23.98
2018-09-21T08:49:39.055Z,24.42
2018-09-21T08:52:08.034Z,24.51
2018-09-21T08:54:37.066Z,24.23
2018-09-21T08:57:06.066Z,24.25
2018-09-21T08:59:35.033Z,24.51
2018-09-21T09:02:04.018Z,24.14
2018-09-21T09:04:33.029Z,24.40
2018-09-21T09:07:02.033Z,24.51
2018-09-21T09:09:31.006Z,24.69
2018-09-21T09:11:59.994Z,24.68
2018-09-21T09:14:28.983Z,24.75
2018-09-21T09:16:57.967Z,24.89
2018-09-21T09:19:27.018Z,24.70
2018-09-21T09:21:55.997Z,24.86
2018-09-21T09:24:25.010Z,24.85
2018-09-21T09:26:53.962Z,24.66
2018-09-21T09:29:22.946Z,24.82
2018-09-21T09:31:51.948Z,25.00
2018-09-21T09:34:20.927Z,24.91
2018-09-21T09:36:50.312Z,24.78
2018-09-21T09:39:19.259Z,24.82
2018-09-21T09:41:48.313Z,24.83
2018-09-21T09:44:17.294Z,24.78
2018-09-21T09:46:46.278Z,24.79
2018-09-21T09:49:15.301Z,24.71
2018-09-21T09:51:44.251Z,24.97
2018-09-21T09:54:13.232Z,25.01
2018-09-21T09:56:42.202Z,25.34
2018-09-21T09:59:11.193Z,25.61
2018-09-21T10:01:40.211Z,25.69
2018-09-21T10:04:09.322Z,25.94
2018-09-21T10:06:38.542Z,26.07
2018-09-21T10:09:09.301Z,26.25
2018-09-21T10:11:38.569Z,26.07
2018-09-21T10:14:08.066Z,25.90
2018-09-21T10:16:37.298Z,25.77
2018-09-21T10:19:06.282Z,25.63
2018-09-21T10:21:35.267Z,25.48
2018-09-21T10:24:04.247Z,25.54
2018-09-21T10:26:33.842Z,25.75
2018-09-21T10:29:03.039Z,25.99
2018-09-21T10:31:32.034Z,26.16
2018-09-21T10:34:01.005Z,26.26
2018-09-21T10:36:29.998Z,26.34
2018-09-21T10:38:58.965Z,26.20
2018-09-21T10:41:27.945Z,26.07
2018-09-21T10:43:57.017Z,26.19
2018-09-21T10:46:25.997Z,26.10
2018-09-21T10:48:54.982Z,25.86
2018-09-21T10:51:24.086Z,25.48
2018-09-21T10:53:53.041Z,25.48
2018-09-21T10:56:22.046Z,25.47
2018-09-21T10:58:51.040Z,25.43
2018-09-21T11:01:20.004Z,25.56
2018-09-21T11:03:49.002Z,25.44
2018-09-21T11:06:18.166Z,25.33
2018-09-21T11:08:47.138Z,25.30
2018-09-21T11:11:16.242Z,25.16
2018-09-21T11:13:45.214Z,25.16
2018-09-21T11:16:14.329Z,25.08
2018-09-21T11:18:43.303Z,25.00
2018-09-21T11:21:12.309Z,24.81
2018-09-21T11:23:41.274Z,24.89
2018-09-21T11:26:10.293Z,24.75
2018-09-21T11:28:39.274Z,24.81
2018-09-21T11:31:08.285Z,24.89
2018-09-21T11:33:37.247Z,24.80
2018-09-21T11:36:06.237Z,24.76
2018-09-21T11:38:35.567Z,24.68
2018-09-21T11:41:04.560Z,24.69
2018-09-21T11:43:33.554Z,24.68
2018-09-21T11:46:02.523Z,24.73
2018-09-21T11:48:31.501Z,24.62
2018-09-21T11:51:00.570Z,24.67
2018-09-21T11:53:29.590Z,24.66
2018-09-21T11:55:58.565Z,24.62
2018-09-21T11:58:27.554Z,24.55
2018-09-21T12:00:56.533Z,24.51
2018-09-21T12:03:25.613Z,24.57
2018-09-21T12:05:54.626Z,24.59
2018-09-21T12:08:23.577Z,24.68
2018-09-21T12:10:52.556Z,24.69
2018-09-21T12:13:21.546Z,24.62
2018-09-21T12:15:50.578Z,24.57
2018-09-21T12:18:19.559Z,24.50
2018-09-21T12:20:48.540Z,24.32
2018-09-21T12:23:17.593Z,24.31
2018-09-21T12:25:47.354Z,24.27
2018-09-21T12:28:16.357Z,24.28
2018-09-21T12:30:45.336Z,24.20
2018-09-21T12:33:14.318Z,24.24
2018-09-21T12:35:43.286Z,24.28
2018-09-21T12:38:12.273Z,24.30
2018-09-21T12:40:41.241Z,24.22
2018-09-21T12:43:10.242Z,24.25
2018-09-21T12:45:39.220Z,24.18
2018-09-21T12:48:08.245Z,24.14
2018-09-21T12:50:37.326Z,24.18
2018-09-21T12:53:06.298Z,24.10
2018-09-21T12:55:35.265Z,24.13
2018-09-21T12:58:04.372Z,24.06
2018-09-21T13:00:38.672Z,24.10
2018-09-21T13:03:07.657Z,24.10
2018-09-21T13:05:36.625Z,23.99
2018-09-21T13:08:05.817Z,24.04
2018-09-21T13:10:34.795Z,23.97
2018-09-21T13:13:03.778Z,24.05
2018-09-21T13:15:32.757Z,23.94
2018-09-21T13:18:01.912Z,23.98
2018-09-21T13:20:30.874Z,23.92
2018-09-21T13:22:59.857Z,23.93
2018-09-21T13:25:28.829Z,23.97
2018-09-21T13:27:57.831Z,23.86
2018-09-21T13:30:26.814Z,23.81
2018-09-21T13:32:55.859Z,23.78
2018-09-21T13:35:24.976Z,23.76
2018-09-21T13:37:53.966Z,23.72
2018-09-21T13:40:22.954Z,23.31
2018-09-21T13:42:51.931Z,21.96
2018-09-21T13:45:21.167Z,20.90
2018-09-21T13:47:50.557Z,20.30
2018-09-21T13:50:19.558Z,20.45
2018-09-21T13:52:48.655Z,20.32
2018-09-21T13:55:17.701Z,20.26
2018-09-21T13:57:46.689Z,20.15
2018-09-21T14:00:15.674Z,19.98
2018-09-21T14:02:44.667Z,20.07
2018-09-21T14:05:13.674Z,19.25
2018-09-21T14:07:43.036Z,18.61
2018-09-21T14:10:12.538Z,17.71
2018-09-21T14:12:41.610Z,17.09
2018-09-21T14:15:10.605Z,16.69
2018-09-21T14:17:39.677Z,16.50
2018-09-21T14:20:08.666Z,16.30
2018-09-21T14:22:37.638Z,16.07
2018-09-21T14:25:06.734Z,15.98
2018-09-21T14:27:35.774Z,15.91
2018-09-21T14:30:05.230Z,15.78
2018-09-21T14:32:34.206Z,15.75
2018-09-21T14:35:03.242Z,15.80
2018-09-21T14:37:32.233Z,15.75
2018-09-21T14:40:01.223Z,15.60
2018-09-21T14:42:30.246Z,15.45
2018-09-21T14:44:59.348Z,15.27
2018-09-21T14:47:28.317Z,15.06
2018-09-21T14:49:57.337Z,14.98
2018-09-21T14:52:26.502Z,14.74
2018-09-21T14:54:55.558Z,14.61
2018-09-21T14:57:24.569Z,14.43
2018-09-21T14:59:53.668Z,14.50
2018-09-21T15:02:22.675Z,14.36
2018-09-21T15:04:51.694Z,14.55
2018-09-21T15:07:20.706Z,14.53
2018-09-21T15:09:49.850Z,14.50
2018-09-21T15:12:18.838Z,14.60
2018-09-21T15:14:47.834Z,14.54
2018-09-21T15:17:16.822Z,14.53
2018-09-21T15:19:45.802Z,14.55
2018-09-21T15:22:14.789Z,14.46
2018-09-21T15:24:43.759Z,14.55
2018-09-21T15:27:13.906Z,14.58
2018-09-21T15:29:43.065Z,14.58
2018-09-21T15:32:12.322Z,14.56
2018-09-21T15:34:41.293Z,14.51
2018-09-21T15:37:10.285Z,14.56
2018-09-21T15:39:39.293Z,14.52
2018-09-21T15:42:08.297Z,14.55
2018-09-21T15:44:37.279Z,14.46
2018-09-21T15:47:06.345Z,14.51
2018-09-21T15:49:35.329Z,14.56
2018-09-21T15:52:05.024Z,14.64
2018-09-21T15:54:34.001Z,14.60
2018-09-21T15:57:03.078Z,14.69
2018-09-21T15:59:32.062Z,14.61
2018-09-21T16:02:01.255Z,14.71
2018-09-21T16:04:30.238Z,14.80
2018-09-21T16:07:00.089Z,14.91
2018-09-21T16:09:29.192Z,14.91
2018-09-21T16:11:58.183Z,14.96
2018-09-21T16:14:27.255Z,14.90
2018-09-21T16:16:56.176Z,14.93
2018-09-21T16:19:25.150Z,14.98
2018-09-21T16:21:54.128Z,14.99
2018-09-21T16:24:23.117Z,15.05
2018-09-21T16:26:52.106Z,14.99
2018-09-21T16:29:21.109Z,14.88
2018-09-21T16:31:50.173Z,14.82
2018-09-21T16:34:19.162Z,14.84
2018-09-21T16:36:48.256Z,14.90
2018-09-21T16:39:17.260Z,14.92
2018-09-21T16:41:46.304Z,14.95
2018-09-21T16:44:15.545Z,14.95
2018-09-21T16:46:44.549Z,15.00
2018-09-21T16:49:13.555Z,15.02
2018-09-21T16:51:42.674Z,15.03
2018-09-21T16:54:11.627Z,15.00
2018-09-21T16:56:40.623Z,14.95
2018-09-21T16:59:09.635Z,14.97
2018-09-21T17:01:38.622Z,14.82
2018-09-21T17:04:07.779Z,14.79
2018-09-21T17:06:37.491Z,14.85
2018-09-21T17:09:09.022Z,14.84
2018-09-21T17:11:39.062Z,14.83
2018-09-21T17:14:08.058Z,14.80
2018-09-21T17:16:37.150Z,14.84
2018-09-21T17:19:06.342Z,14.88
2018-09-21T17:21:35.402Z,14.84
2018-09-21T17:24:04.455Z,14.82
2018-09-21T17:26:33.468Z,14.81
2018-09-21T17:29:02.722Z,14.78
2018-09-21T17:31:31.742Z,14.77
2018-09-21T17:34:00.750Z,14.64
2018-09-21T17:36:29.736Z,14.75
2018-09-21T17:38:58.714Z,14.83
2018-09-21T17:41:27.769Z,14.70
2018-09-21T17:43:59.728Z,14.72
2018-09-21T17:46:29.009Z,14.81
2018-09-21T17:48:58.007Z,14.89
2018-09-21T17:51:27.118Z,14.80
2018-09-21T17:53:56.097Z,14.93
2018-09-21T17:56:25.066Z,14.93
2018-09-21T17:58:54.099Z,14.95
2018-09-21T18:01:23.157Z,15.04
2018-09-21T18:03:52.161Z,15.11
2018-09-21T18:06:21.206Z,15.18
2018-09-21T18:08:50.514Z,15.17
2018-09-21T18:11:19.490Z,15.12
2018-09-21T18:13:48.485Z,15.05
2018-09-21T18:16:17.631Z,15.08
2018-09-21T18:18:46.519Z,15.08
2018-09-21T18:21:15.518Z,15.03
2018-09-21T18:23:44.554Z,15.10
2018-09-21T18:26:20.056Z,15.17
2018-09-21T18:28:49.102Z,15.13
2018-09-21T18:31:18.175Z,15.09
2018-09-21T18:33:47.269Z,15.17
2018-09-21T18:36:17.417Z,15.03
2018-09-21T18:38:46.401Z,15.09
2018-09-21T18:41:15.470Z,15.14
2018-09-21T18:43:44.490Z,15.05
2018-09-21T18:46:13.501Z,15.08
2018-09-21T18:48:42.561Z,15.10
2018-09-21T18:51:11.637Z,15.11
2018-09-21T18:53:40.657Z,15.07
2018-09-21T18:56:09.629Z,15.00
2018-09-21T18:58:38.654Z,15.02
2018-09-21T19:01:07.646Z,14.99
2018-09-21T19:03:36.630Z,14.99
2018-09-21T19:06:05.659Z,14.99
2018-09-21T19:08:34.657Z,14.87
2018-09-21T19:11:03.811Z,14.83
2018-09-21T19:13:32.817Z,14.74
2018-09-21T19:16:02.026Z,14.76
2018-09-21T19:18:31.029Z,14.70
2018-09-21T19:21:00.081Z,14.78
2018-09-21T19:23:29.082Z,14.72
2018-09-21T19:25:58.116Z,14.65
2018-09-21T19:28:27.177Z,14.71
2018-09-21T19:30:56.261Z,14.66
2018-09-21T19:33:25.261Z,14.61
2018-09-21T19:35:54.238Z,14.66
2018-09-21T19:38:23.214Z,14.59
2018-09-21T19:40:52.368Z,14.52
2018-09-21T19:43:21.838Z,14.53
2018-09-21T19:45:50.879Z,14.52
2018-09-21T19:48:19.912Z,14.52
2018-09-21T19:50:49.108Z,14.47
2018-09-21T19:53:18.219Z,14.48
2018-09-21T19:55:47.205Z,14.37
2018-09-21T19:58:16.181Z,14.39
2018-09-21T20:00:45.238Z,14.33
2018-09-21T20:03:14.222Z,14.37
2018-09-21T20:05:43.222Z,14.29
2018-09-21T20:08:12.198Z,14.21
2018-09-21T20:10:41.226Z,14.34
2018-09-21T20:13:10.206Z,14.28
2018-09-21T20:15:39.407Z,14.25
2018-09-21T20:18:08.666Z,14.25
2018-09-21T20:20:37.668Z,14.21
2018-09-21T20:23:06.661Z,14.17
2018-09-21T20:25:35.654Z,14.18
2018-09-21T20:28:04.765Z,14.15
2018-09-21T20:30:39.254Z,14.16
2018-09-21T20:33:13.534Z,14.17
2018-09-21T20:35:42.711Z,14.12
2018-09-21T20:38:11.658Z,14.12
2018-09-21T20:40:40.721Z,14.15
2018-09-21T20:43:09.724Z,14.15
2018-09-21T20:45:38.713Z,14.18
2018-09-21T20:48:07.690Z,14.21
2018-09-21T20:50:36.777Z,14.30
2018-09-21T20:53:05.766Z,14.23
2018-09-21T20:55:34.767Z,14.26
2018-09-21T20:58:03.758Z,14.20
2018-09-21T21:00:32.757Z,14.20
2018-09-21T21:03:01.838Z,14.20
2018-09-21T21:05:30.802Z,14.17
2018-09-21T21:07:59.780Z,14.16
2018-09-21T21:10:28.834Z,14.25
2018-09-21T21:12:57.848Z,14.19
2018-09-21T21:15:26.842Z,14.18
2018-09-21T21:17:55.815Z,14.22
2018-09-21T21:20:24.805Z,14.27
2018-09-21T21:22:53.869Z,14.19
2018-09-21T21:25:22.859Z,14.16
2018-09-21T21:27:51.846Z,14.23
2018-09-21T21:30:21.021Z,14.17
2018-09-21T21:32:50.091Z,14.12
2018-09-21T21:35:19.134Z,14.10
2018-09-21T21:37:48.122Z,14.13
2018-09-21T21:40:17.115Z,14.20
2018-09-21T21:42:46.076Z,14.14
2018-09-21T21:45:15.062Z,14.17
2018-09-21T21:47:44.048Z,14.14
2018-09-21T21:50:13.058Z,14.10
2018-09-21T21:52:42.031Z,14.01
2018-09-21T21:55:11.030Z,14.01
2018-09-21T21:57:40.017Z,13.95
2018-09-21T22:00:09.625Z,14.00
2018-09-21T22:02:38.613Z,14.00
2018-09-21T22:05:07.618Z,13.96
2018-09-21T22:07:37.901Z,13.98
2018-09-21T22:10:08.104Z,13.90
2018-09-21T22:12:42.411Z,13.94
2018-09-21T22:15:13.635Z,13.84
2018-09-21T22:17:42.625Z,13.82
2018-09-21T22:20:11.754Z,13.75
2018-09-21T22:22:40.857Z,13.80
2018-09-21T22:25:10.460Z,13.82
2018-09-21T22:27:39.455Z,13.81
2018-09-21T22:30:08.718Z,13.72
2018-09-21T22:32:38.276Z,13.69
2018-09-21T22:35:07.329Z,13.67
2018-09-21T22:37:36.323Z,13.62
2018-09-21T22:40:05.545Z,13.53
2018-09-21T22:42:34.549Z,13.44
2018-09-21T22:45:03.603Z,13.58
2018-09-21T22:47:32.645Z,13.59
2018-09-21T22:50:09.865Z,13.53
2018-09-21T22:52:39.474Z,13.42
2018-09-21T22:55:08.467Z,13.32
2018-09-21T22:57:37.523Z,13.37
2018-09-21T23:00:06.534Z,13.35
2018-09-21T23:02:35.526Z,13.33
2018-09-21T23:05:04.746Z,13.25
2018-09-21T23:07:33.743Z,13.07
2018-09-21T23:10:02.765Z,12.98
2018-09-21T23:12:31.750Z,13.05
2018-09-21T23:15:00.727Z,13.05
2018-09-21T23:17:29.721Z,13.06
2018-09-21T23:19:58.720Z,12.93
2018-09-21T23:22:27.702Z,12.94
2018-09-21T23:24:56.671Z,12.91
2018-09-21T23:27:25.668Z,12.90
2018-09-21T23:29:54.646Z,12.97
2018-09-21T23:32:23.629Z,12.89
2018-09-21T23:34:52.648Z,12.93
2018-09-21T23:37:21.628Z,12.91
2018-09-21T23:39:50.697Z,12.82
2018-09-21T23:42:19.738Z,12.83
2018-09-21T23:44:48.705Z,12.75
2018-09-21T23:47:17.701Z,12.75
2018-09-21T23:49:46.689Z,12.69
2018-09-21T23:52:15.748Z,12.71
2018-09-21T23:54:44.743Z,12.79
2018-09-21T23:57:13.766Z,12.74
2018-09-21T23:59:42.898Z,12.68
